Flight Track Log - Related Links

Times and Time Zones

All times are in EDT time to prevent confusion due to time zone crossing. See the UCA3596 flight status page for this flight to view local times or setup timezone preferences in your user account.

Time Position Orientation Groundspeed Altitude Reporting Facility
EDT Latitude Longitude Course Direction KTS MPH feet Rate Location/Type
Tue 03:09:07 PM 40.6833 -74.1667 180° South 121 139 400  Level New York TRACON
Tue 03:10:01 PM 40.6500 -74.1667 180° South 135 155 1,500 1,316 Climbing New York TRACON
Tue 03:11:01 PM 40.6667 -74.2167 294° West 201 231 2,900 1,400 Climbing New York TRACON
Tue 03:12:01 PM 40.7167 -74.2500 333° Northwest 199 229 4,300 1,600 Climbing New York TRACON
Tue 03:13:01 PM 40.7667 -74.2667 346° North 200 230 6,100 1,619 Climbing New York TRACON
Tue 03:14:07 PM 40.8333 -74.3000 339° North 200 230 7,700 1,388 Climbing New York TRACON
Tue 03:15:02 PM 40.8833 -74.3167 346° North 204 235 8,900 1,421 Climbing New York TRACON
Tue 03:16:01 PM 40.9333 -74.3500 333° Northwest 203 234 10,400 1,361 Climbing New York TRACON
Tue 03:17:01 PM 40.9833 -74.3667 346° North 204 235 11,600 1,000 Climbing New York TRACON
Tue 03:17:31 PM 41.0042 -74.3839 328° Northwest 219 252 11,900 202 Climbing New York Center
Tue 03:18:30 PM 41.0678 -74.4175 338° Northwest 217 250 11,900  Level New York Center
Tue 03:19:31 PM 41.1353 -74.4544 338° Northwest 252 290 11,900  Level New York Center
Tue 03:20:32 PM 41.2053 -74.4856 342° North 252 290 11,900 356 Level New York Center
Tue 03:21:29 PM 41.2728 -74.5225 338° Northwest 262 302 12,600 1,008 Climbing New York Center
Tue 03:22:31 PM 41.3322 -74.5536 339° North 244 281 13,900 639 Climbing New York Center
Tue 03:23:31 PM 41.3936 -74.5875 338° Northwest 234 269 13,900  Level New York Center
Tue 03:24:31 PM 41.4394 -74.6508 314° West 234 269 13,900  Level New York Center
Tue 03:25:30 PM 41.4744 -74.7247 302° West 239 275 13,900  Level New York Center
Tue 03:26:32 PM 41.5136 -74.8019 304° West 247 284 13,900  Level New York Center
Tue 03:27:32 PM 41.5444 -74.8731 300° West 247 284 13,900  Level New York Center
Tue 03:28:30 PM 41.5853 -74.9533 304° West 263 303 13,900  Level New York Center
Tue 03:29:32 PM 41.6325 -75.0339 308° West 263 303 13,900  Level New York Center
Tue 03:30:32 PM 41.6819 -75.1008 315° West 257 296 13,900 -706 Level New York Center
Tue 03:31:31 PM 41.7336 -75.1683 316° Northwest 257 296 12,500 -1,350 Descending New York Center
Tue 03:32:32 PM 41.7989 -75.2058 337° Northwest 271 312 11,200 -1,250 Descending New York Center
Tue 03:33:31 PM 41.8700 -75.2525 334° Northwest 276 318 10,000 -1,008 Descending New York Center
Tue 03:34:31 PM 41.9497 -75.2886 341° North 276 318 9,200 -756 Descending New York Center
Tue 03:35:30 PM 41.9953 -75.3558 312° West 254 292 8,500 -694 Descending New York Center
Tue 03:36:32 PM 42.0211 -75.4358 294° West 236 272 7,800 -595 Descending New York Center
Tue 03:37:31 PM 42.0433 -75.5072 293° West 236 272 7,300 -504 Descending New York Center
Tue 03:38:31 PM 42.0714 -75.5872 295° West 236 272 6,800 -496 Descending New York Center
Tue 03:39:32 PM 42.0994 -75.6647 296° West 231 266 6,300 -694 Descending New York Center
Tue 03:40:32 PM 42.1256 -75.7394 295° West 236 272 5,400 -966 Descending New York Center
Tue 03:41:30 PM 42.1578 -75.8119 301° West 236 272 4,400 -807 Descending New York Center
Tue 03:42:31 PM 42.1989 -75.8739 312° West 236 272 3,800 -545 Descending New York Center
Tue 03:43:31 PM 42.2256 -75.9319 302° West 212 244 3,300 -605 Descending New York Center
Tue 03:44:30 PM 42.2525 -75.9817 306° West 186 214 2,600 -650 Descending New York Center
Tue 03:45:31 PM 42.2331 -75.9997 215° Southwest 118 136 2,000 2,678 Descending New York Center
Tue 03:46:31 PM 42.2253 -76.0297 251° West 118 136 8,000 6,000 Climbing New York Center
Tue 03:48:00 PM 42.2084 -75.9796 180° South  Level Estimated
Tue 03:55:00 PM 42.2084 -75.9796 180° South  Level Estimated
Tue 03:56:00 PM 42.2084 -75.9796 180° South  Level Estimated

Login

Don't have an account? Register now (free) for customized features, flight alerts, and more!